createdAt,value
2022-12-08T00:00:14.763Z,2.40
2022-12-08T00:02:44.396Z,2.40
2022-12-08T00:05:30.373Z,2.50
2022-12-08T00:08:16.458Z,2.40
2022-12-08T00:10:49.600Z,2.20
2022-12-08T00:13:17.109Z,2.20
2022-12-08T00:15:44.330Z,2.00
2022-12-08T00:18:11.588Z,2.00
2022-12-08T00:20:38.809Z,2.10
2022-12-08T00:23:06.077Z,2.10
2022-12-08T00:25:35.862Z,2.00
2022-12-08T00:28:03.176Z,1.90
2022-12-08T00:30:30.423Z,1.90
2022-12-08T00:32:57.623Z,1.80
2022-12-08T00:35:24.836Z,1.90
2022-12-08T00:37:57.570Z,1.90
2022-12-08T00:40:27.737Z,1.90
2022-12-08T00:42:56.395Z,2.00
2022-12-08T00:45:23.570Z,2.00
2022-12-08T00:47:50.778Z,2.00
2022-12-08T00:50:18.054Z,2.00
2022-12-08T00:52:45.257Z,2.00
2022-12-08T00:55:12.503Z,2.00
2022-12-08T00:57:39.718Z,2.00
2022-12-08T01:00:07.628Z,2.10
2022-12-08T01:02:35.194Z,2.10
2022-12-08T01:05:02.401Z,2.00
2022-12-08T01:07:29.588Z,2.00
2022-12-08T01:09:58.054Z,2.00
2022-12-08T01:12:25.382Z,2.00
2022-12-08T01:14:52.573Z,2.00
2022-12-08T01:17:19.817Z,2.00
2022-12-08T01:19:47.036Z,2.00
2022-12-08T01:22:14.265Z,2.00
2022-12-08T01:24:41.454Z,2.10
2022-12-08T01:27:08.630Z,2.00
2022-12-08T01:29:35.848Z,2.10
2022-12-08T01:32:03.048Z,2.10
2022-12-08T01:34:30.241Z,2.10
2022-12-08T01:36:57.432Z,2.10
2022-12-08T01:39:24.644Z,2.10
2022-12-08T01:41:51.842Z,2.10
2022-12-08T01:44:19.026Z,2.10
2022-12-08T01:46:48.703Z,2.20
2022-12-08T01:49:20.059Z,2.30
2022-12-08T01:52:11.314Z,2.30
2022-12-08T01:54:42.341Z,2.30
2022-12-08T01:57:42.123Z,2.30
2022-12-08T02:00:11.456Z,2.20
2022-12-08T02:02:50.375Z,2.10
2022-12-08T02:05:18.883Z,2.10
2022-12-08T02:07:47.312Z,2.00
2022-12-08T02:10:16.770Z,2.00
2022-12-08T02:12:44.153Z,2.00
2022-12-08T02:15:12.486Z,2.10
2022-12-08T02:17:56.451Z,2.10
2022-12-08T02:20:34.458Z,2.00
2022-12-08T02:23:27.263Z,2.00
2022-12-08T02:26:21.590Z,2.00
2022-12-08T02:29:03.834Z,2.10
2022-12-08T02:31:55.567Z,2.10
2022-12-08T02:34:41.297Z,2.10
2022-12-08T02:37:11.894Z,1.90
2022-12-08T02:39:53.366Z,1.90
2022-12-08T02:43:28.484Z,1.90
2022-12-08T02:45:59.398Z,1.90
2022-12-08T02:48:28.366Z,2.00
2022-12-08T02:50:55.681Z,1.80
2022-12-08T02:53:22.886Z,1.80
2022-12-08T02:56:25.251Z,1.90
2022-12-08T02:59:08.838Z,1.90
2022-12-08T03:01:39.330Z,1.90
2022-12-08T03:04:11.611Z,1.90
2022-12-08T03:07:14.174Z,2.00
2022-12-08T03:09:55.486Z,2.00
2022-12-08T03:12:31.740Z,2.00
2022-12-08T03:15:00.280Z,2.00
2022-12-08T03:17:28.644Z,2.00
2022-12-08T03:19:55.862Z,2.10
2022-12-08T03:22:25.003Z,2.00
2022-12-08T03:24:52.283Z,1.90
2022-12-08T03:27:21.172Z,2.00
2022-12-08T03:29:49.185Z,2.00
2022-12-08T03:32:26.822Z,1.90
2022-12-08T03:34:54.024Z,1.90
2022-12-08T03:37:21.552Z,1.90
2022-12-08T03:39:48.768Z,1.80
2022-12-08T03:42:16.004Z,1.60
2022-12-08T03:44:43.286Z,1.50
2022-12-08T03:47:10.510Z,1.60
2022-12-08T03:49:37.831Z,1.50
2022-12-08T03:52:05.175Z,1.50
2022-12-08T03:54:32.422Z,1.60
2022-12-08T03:56:59.610Z,1.60
2022-12-08T03:59:26.897Z,1.70
2022-12-08T04:01:54.139Z,1.70
2022-12-08T04:04:21.578Z,1.70
2022-12-08T04:06:48.830Z,1.60
2022-12-08T04:09:16.214Z,1.60
2022-12-08T04:11:43.498Z,1.50
2022-12-08T04:14:10.727Z,1.50
2022-12-08T04:16:38.002Z,1.40
2022-12-08T04:19:05.292Z,1.50
2022-12-08T04:21:32.840Z,1.40
2022-12-08T04:24:01.426Z,1.40
2022-12-08T04:26:28.877Z,1.50
2022-12-08T04:28:56.100Z,1.60
2022-12-08T04:31:23.344Z,1.50
2022-12-08T04:33:50.618Z,1.50
2022-12-08T04:36:17.914Z,1.60
2022-12-08T04:38:45.118Z,1.60
2022-12-08T04:41:12.324Z,1.50
2022-12-08T04:43:39.578Z,1.70
2022-12-08T04:46:09.600Z,1.70
2022-12-08T04:48:37.313Z,1.70
2022-12-08T04:51:04.690Z,1.70
2022-12-08T04:53:32.122Z,1.70
2022-12-08T04:55:59.409Z,1.70
2022-12-08T04:58:26.618Z,1.70
2022-12-08T05:00:53.988Z,1.80
2022-12-08T05:03:28.110Z,1.80
2022-12-08T05:05:55.914Z,1.70
2022-12-08T05:08:23.181Z,1.70
2022-12-08T05:10:50.449Z,1.70
2022-12-08T05:13:17.685Z,1.70
2022-12-08T05:15:44.883Z,1.70
2022-12-08T05:18:12.097Z,1.60
2022-12-08T05:20:39.332Z,1.70
2022-12-08T05:23:06.564Z,1.80
2022-12-08T05:25:33.831Z,1.80
2022-12-08T05:28:17.957Z,1.80
2022-12-08T05:30:48.214Z,1.70
2022-12-08T05:33:15.437Z,1.60
2022-12-08T05:35:43.026Z,1.70
2022-12-08T05:38:10.679Z,1.80
2022-12-08T05:40:39.193Z,1.70
2022-12-08T05:43:06.433Z,1.70
2022-12-08T05:45:34.066Z,1.80
2022-12-08T05:48:01.451Z,1.80
2022-12-08T05:50:28.696Z,1.80
2022-12-08T05:52:57.552Z,1.90
2022-12-08T05:55:24.755Z,1.80
2022-12-08T05:57:51.970Z,1.70
2022-12-08T06:00:20.090Z,1.70
2022-12-08T06:02:47.435Z,1.80
2022-12-08T06:05:14.805Z,1.80
2022-12-08T06:07:42.097Z,1.80
2022-12-08T06:10:09.602Z,1.70
2022-12-08T06:12:36.902Z,1.80
2022-12-08T06:15:04.497Z,1.80
2022-12-08T06:17:31.706Z,1.70
2022-12-08T06:19:59.031Z,1.80
2022-12-08T06:22:26.333Z,1.90
2022-12-08T06:24:53.625Z,1.80
2022-12-08T06:27:20.833Z,1.70
2022-12-08T06:29:48.103Z,1.80
2022-12-08T06:32:15.424Z,1.80
2022-12-08T06:34:42.747Z,1.80
2022-12-08T06:37:09.968Z,1.90
2022-12-08T06:39:37.326Z,1.90
2022-12-08T06:42:23.288Z,1.70
2022-12-08T06:44:50.761Z,1.80
2022-12-08T06:47:22.091Z,1.90
2022-12-08T06:49:52.002Z,2.00
2022-12-08T06:52:19.207Z,1.90
2022-12-08T06:54:46.455Z,1.90
2022-12-08T06:57:13.752Z,2.00
2022-12-08T06:59:40.945Z,2.00
2022-12-08T07:02:09.014Z,2.00
2022-12-08T07:04:36.269Z,2.00
2022-12-08T07:07:03.561Z,2.00
2022-12-08T07:09:30.764Z,2.00
2022-12-08T07:11:58.020Z,2.10
2022-12-08T07:14:25.308Z,2.10
2022-12-08T07:16:52.543Z,2.10
2022-12-08T07:19:19.842Z,2.10
2022-12-08T07:21:47.134Z,2.10
2022-12-08T07:24:14.436Z,2.00
2022-12-08T07:26:41.716Z,1.90
2022-12-08T07:29:10.309Z,1.90
2022-12-08T07:31:37.562Z,1.90
2022-12-08T07:34:04.817Z,2.00
2022-12-08T07:36:32.854Z,2.10
2022-12-08T07:39:00.111Z,2.20
2022-12-08T07:41:27.349Z,2.20
2022-12-08T07:43:55.270Z,2.20
2022-12-08T07:46:23.637Z,2.10
2022-12-08T07:48:54.664Z,2.10
2022-12-08T07:51:21.929Z,2.10
2022-12-08T07:53:53.718Z,2.20
2022-12-08T07:56:21.458Z,2.30
2022-12-08T07:58:48.788Z,2.40
2022-12-08T08:01:26.894Z,2.40
2022-12-08T08:03:54.891Z,2.40
2022-12-08T08:06:22.284Z,2.40
2022-12-08T08:08:49.606Z,2.60
2022-12-08T08:11:21.168Z,2.60
2022-12-08T08:13:49.900Z,2.70
2022-12-08T08:16:17.418Z,2.80
2022-12-08T08:18:47.409Z,2.80
2022-12-08T08:21:45.123Z,2.90
2022-12-08T08:24:02.246Z,3.10
2022-12-08T08:26:29.594Z,3.20
2022-12-08T08:28:56.806Z,3.00
2022-12-08T08:31:26.976Z,3.00
2022-12-08T08:33:54.683Z,3.10
2022-12-08T08:36:22.454Z,3.00
2022-12-08T08:38:49.758Z,3.00
2022-12-08T08:41:16.971Z,2.90
2022-12-08T08:43:44.195Z,2.90
2022-12-08T08:46:11.700Z,3.00
2022-12-08T08:48:38.958Z,3.10
2022-12-08T08:51:10.085Z,3.10
2022-12-08T08:53:37.400Z,3.10
2022-12-08T08:56:11.694Z,3.20
2022-12-08T08:58:39.085Z,3.20
2022-12-08T09:01:06.365Z,3.40
2022-12-08T09:03:33.665Z,3.60
2022-12-08T09:06:00.943Z,3.80
2022-12-08T09:08:28.269Z,3.80
2022-12-08T09:10:55.623Z,3.70
2022-12-08T09:13:22.865Z,3.80
2022-12-08T09:15:50.125Z,4.00
2022-12-08T09:18:17.351Z,4.00
2022-12-08T09:20:44.759Z,3.90
2022-12-08T09:23:11.987Z,4.00
2022-12-08T09:25:39.189Z,4.00
2022-12-08T09:28:06.410Z,4.00
2022-12-08T09:30:33.598Z,3.90
2022-12-08T09:33:00.806Z,3.70
2022-12-08T09:35:28.019Z,3.80
2022-12-08T09:37:55.233Z,4.00
2022-12-08T09:40:23.110Z,4.10
2022-12-08T09:43:05.880Z,4.10
2022-12-08T09:45:34.304Z,4.10
2022-12-08T09:48:12.146Z,4.00
2022-12-08T09:50:53.603Z,4.00
2022-12-08T09:53:39.539Z,4.20
2022-12-08T09:56:17.455Z,4.20
2022-12-08T09:59:06.681Z,4.30
2022-12-08T10:01:38.005Z,4.20
2022-12-08T10:04:32.889Z,4.20
2022-12-08T10:07:17.561Z,4.30
2022-12-08T10:10:26.282Z,4.30
2022-12-08T10:13:26.672Z,4.60
2022-12-08T10:16:33.690Z,4.50
2022-12-08T10:19:21.711Z,4.50
2022-12-08T10:21:49.441Z,4.40
2022-12-08T10:24:23.263Z,4.20
2022-12-08T10:26:50.487Z,3.90
2022-12-08T10:29:17.823Z,4.00
2022-12-08T10:31:45.367Z,4.10
2022-12-08T10:34:23.119Z,4.00
2022-12-08T10:36:58.020Z,4.20
2022-12-08T10:39:38.354Z,4.40
2022-12-08T10:42:14.435Z,4.40
2022-12-08T10:45:08.391Z,4.60
2022-12-08T10:47:37.475Z,4.60
2022-12-08T10:50:28.152Z,4.50
2022-12-08T10:53:19.834Z,4.40
2022-12-08T10:56:02.390Z,4.50
2022-12-08T10:58:40.932Z,4.50
2022-12-08T11:01:22.095Z,4.40
2022-12-08T11:03:53.133Z,4.30
2022-12-08T11:06:29.338Z,4.40
2022-12-08T11:08:58.366Z,4.60
2022-12-08T11:11:48.881Z,4.80
2022-12-08T11:14:42.387Z,4.90
2022-12-08T11:17:18.080Z,4.70
2022-12-08T11:20:11.111Z,4.60
2022-12-08T11:22:42.759Z,4.60
2022-12-08T11:25:28.484Z,4.70
2022-12-08T11:27:59.531Z,4.90
2022-12-08T11:30:32.212Z,4.80
2022-12-08T11:33:22.351Z,5.00
2022-12-08T11:36:04.935Z,5.00
2022-12-08T11:38:33.019Z,5.00
2022-12-08T11:41:09.460Z,5.10
2022-12-08T11:43:44.507Z,5.30
2022-12-08T11:46:25.826Z,5.40
2022-12-08T11:49:06.596Z,5.50
2022-12-08T11:51:45.900Z,5.20
2022-12-08T11:54:18.756Z,5.20
2022-12-08T11:56:53.381Z,5.20
2022-12-08T11:59:28.737Z,5.30
2022-12-08T12:02:00.730Z,5.40
2022-12-08T12:04:52.099Z,5.50
2022-12-08T12:07:41.319Z,5.50
2022-12-08T12:10:08.649Z,5.40
2022-12-08T12:12:43.902Z,5.30
2022-12-08T12:15:39.785Z,5.20
2022-12-08T12:18:20.423Z,5.30
2022-12-08T12:20:54.338Z,5.20
2022-12-08T12:23:37.214Z,5.10
2022-12-08T12:26:06.469Z,5.00
2022-12-08T12:28:57.012Z,5.00
2022-12-08T12:31:38.498Z,5.10
2022-12-08T12:34:10.957Z,5.10
2022-12-08T12:36:51.791Z,5.20
2022-12-08T12:39:21.008Z,5.10
2022-12-08T12:42:07.592Z,5.10
2022-12-08T12:44:34.759Z,5.10
2022-12-08T12:47:02.911Z,5.00
2022-12-08T12:49:39.160Z,5.00
2022-12-08T12:52:15.369Z,5.00
2022-12-08T12:55:11.314Z,4.90
2022-12-08T12:57:39.137Z,4.80
2022-12-08T13:00:17.392Z,4.70
2022-12-08T13:02:44.664Z,4.80
2022-12-08T13:05:31.736Z,4.70
2022-12-08T13:08:03.556Z,4.60
2022-12-08T13:10:39.894Z,4.70
2022-12-08T13:13:12.543Z,4.80
2022-12-08T13:15:41.622Z,4.90
2022-12-08T13:18:21.176Z,5.00
2022-12-08T13:20:52.161Z,5.00
2022-12-08T13:23:42.007Z,4.90
2022-12-08T13:26:09.470Z,5.00
2022-12-08T13:29:01.086Z,5.20
2022-12-08T13:31:41.680Z,5.30
2022-12-08T13:34:46.006Z,5.30
2022-12-08T13:37:15.974Z,5.40
2022-12-08T13:39:54.009Z,5.50
2022-12-08T13:42:26.807Z,5.40
2022-12-08T13:45:33.596Z,5.40
2022-12-08T13:48:33.186Z,5.40
2022-12-08T13:57:08.612Z,5.30
2022-12-08T13:59:42.411Z,5.30
2022-12-08T14:02:17.641Z,5.20
2022-12-08T14:07:33.705Z,5.00
2022-12-08T14:10:03.469Z,5.00
2022-12-08T14:12:30.684Z,5.00
2022-12-08T14:15:04.238Z,5.00
2022-12-08T14:17:44.611Z,4.80
2022-12-08T14:20:11.975Z,4.80
2022-12-08T14:22:40.115Z,4.80
2022-12-08T14:25:10.097Z,4.80
2022-12-08T14:27:37.959Z,4.70
2022-12-08T14:30:08.874Z,4.60
2022-12-08T14:32:47.471Z,4.60
2022-12-08T14:35:29.579Z,4.50
2022-12-08T14:38:03.633Z,4.40
2022-12-08T14:40:36.770Z,4.40
2022-12-08T14:43:10.276Z,4.40
2022-12-08T14:45:43.361Z,4.40
2022-12-08T14:48:36.235Z,4.40
2022-12-08T14:51:03.511Z,4.40
2022-12-08T14:53:36.493Z,4.20
2022-12-08T14:56:23.310Z,4.20
2022-12-08T14:59:02.982Z,4.00
2022-12-08T15:01:30.240Z,3.90
2022-12-08T15:04:07.131Z,3.90
2022-12-08T15:06:34.688Z,3.70
2022-12-08T15:09:17.894Z,3.60
2022-12-08T15:11:45.146Z,3.60
2022-12-08T15:14:26.713Z,3.60
2022-12-08T15:16:55.262Z,3.60
2022-12-08T15:19:28.393Z,3.60
2022-12-08T15:22:01.781Z,3.70
2022-12-08T15:24:30.473Z,3.70
2022-12-08T15:26:57.791Z,3.80
2022-12-08T15:29:29.418Z,3.70
2022-12-08T15:31:58.678Z,3.60
2022-12-08T15:34:25.988Z,3.60
2022-12-08T15:36:53.977Z,3.60
2022-12-08T15:39:31.406Z,3.60
2022-12-08T15:41:59.432Z,3.60
2022-12-08T15:44:26.874Z,3.50
2022-12-08T15:46:54.166Z,3.50
2022-12-08T15:49:23.007Z,3.40
2022-12-08T15:51:50.775Z,3.40
2022-12-08T15:54:18.252Z,3.40
2022-12-08T15:57:17.545Z,3.30
2022-12-08T15:59:34.896Z,3.30
2022-12-08T16:02:02.172Z,3.30
2022-12-08T16:07:25.957Z,3.20
2022-12-08T16:09:53.517Z,3.10
2022-12-08T16:13:48.290Z,3.00
2022-12-08T16:15:51.627Z,2.90
2022-12-08T16:18:25.598Z,2.90
2022-12-08T16:23:44.632Z,3.00
2022-12-08T16:26:35.619Z,3.00
2022-12-08T16:29:01.402Z,3.00
2022-12-08T16:31:28.883Z,3.00
2022-12-08T16:33:56.217Z,2.90
2022-12-08T16:36:23.496Z,3.00
2022-12-08T16:38:50.749Z,3.00
2022-12-08T16:41:36.601Z,3.10
2022-12-08T16:44:05.055Z,3.10
2022-12-08T16:46:32.430Z,3.00
2022-12-08T16:48:59.733Z,3.00
2022-12-08T16:51:27.642Z,3.00
2022-12-08T16:53:56.780Z,2.90
2022-12-08T16:56:28.984Z,2.80
2022-12-08T16:58:59.335Z,2.90
2022-12-08T17:01:26.662Z,2.80
2022-12-08T17:04:29.094Z,2.80
2022-12-08T17:06:41.227Z,2.70
2022-12-08T17:09:08.423Z,2.70
2022-12-08T17:11:42.336Z,2.60
2022-12-08T17:14:11.638Z,2.60
2022-12-08T17:16:39.106Z,2.60
2022-12-08T17:19:06.366Z,2.50
2022-12-08T17:21:33.592Z,2.40
2022-12-08T17:24:00.808Z,2.40
2022-12-08T17:26:28.014Z,2.30
2022-12-08T17:29:02.466Z,2.10
2022-12-08T17:31:31.451Z,1.90
2022-12-08T17:34:02.868Z,1.90
2022-12-08T17:36:30.070Z,1.90
2022-12-08T17:38:59.164Z,1.80
2022-12-08T17:41:26.399Z,1.80
2022-12-08T17:43:53.644Z,1.70
2022-12-08T17:46:21.043Z,1.60
2022-12-08T17:48:48.335Z,1.50
2022-12-08T17:51:15.715Z,1.40
2022-12-08T17:53:42.986Z,1.30
2022-12-08T17:56:20.619Z,1.30
2022-12-08T17:58:54.003Z,1.40
2022-12-08T18:01:22.601Z,1.40
2022-12-08T18:03:50.038Z,1.40
2022-12-08T18:06:20.250Z,1.30
2022-12-08T18:08:47.505Z,1.20
2022-12-08T18:11:16.837Z,1.10
2022-12-08T18:13:44.472Z,1.10
2022-12-08T18:16:11.821Z,1.00
2022-12-08T18:18:39.119Z,1.00
2022-12-08T18:21:06.907Z,0.90
2022-12-08T18:23:34.982Z,0.90
2022-12-08T18:26:06.750Z,0.80
2022-12-08T18:28:34.049Z,0.70
2022-12-08T18:31:01.418Z,0.80
2022-12-08T18:33:28.703Z,0.70
2022-12-08T18:35:55.963Z,0.70
2022-12-08T18:38:23.157Z,0.60
2022-12-08T18:40:50.367Z,0.60
2022-12-08T18:43:17.554Z,0.60
2022-12-08T18:45:45.436Z,0.60
2022-12-08T18:48:12.680Z,0.50
2022-12-08T18:50:43.053Z,0.50
2022-12-08T18:53:10.282Z,0.50
2022-12-08T18:55:37.647Z,0.40
2022-12-08T18:58:04.929Z,0.40
2022-12-08T19:00:32.194Z,0.40
2022-12-08T19:02:59.452Z,0.30
2022-12-08T19:05:26.669Z,0.20
2022-12-08T19:07:53.909Z,0.20
2022-12-08T19:10:21.294Z,0.20
2022-12-08T19:12:52.244Z,0.20
2022-12-08T19:15:20.081Z,0.20
2022-12-08T19:17:47.299Z,0.10
2022-12-08T19:20:14.692Z,0.10
2022-12-08T19:22:41.906Z,0.10
2022-12-08T19:25:09.267Z,0.00
2022-12-08T19:27:36.470Z,0.10
2022-12-08T19:30:04.400Z,0.00
2022-12-08T19:32:31.895Z,0.00
2022-12-08T19:34:59.133Z,-0.10
2022-12-08T19:37:26.448Z,-0.10
2022-12-08T19:40:12.333Z,-0.10
2022-12-08T19:42:58.318Z,-0.10
2022-12-08T19:45:25.722Z,0.00
2022-12-08T19:47:52.999Z,0.00
2022-12-08T19:50:40.215Z,0.00
2022-12-08T19:53:12.137Z,-0.20
2022-12-08T19:55:39.553Z,-0.20
2022-12-08T19:58:07.107Z,-0.30
2022-12-08T20:00:34.862Z,-0.40
2022-12-08T20:03:02.355Z,-0.30
2022-12-08T20:05:30.748Z,-0.40
2022-12-08T20:07:58.109Z,-0.30
2022-12-08T20:10:30.606Z,-0.30
2022-12-08T20:13:16.677Z,-0.40
2022-12-08T20:15:44.198Z,-0.20
2022-12-08T20:18:12.269Z,-0.20
2022-12-08T20:20:39.963Z,-0.30
2022-12-08T20:23:07.579Z,-0.40
2022-12-08T20:25:35.169Z,-0.40
2022-12-08T20:28:02.452Z,-0.40
2022-12-08T20:30:29.726Z,-0.40
2022-12-08T20:32:57.050Z,-0.50
2022-12-08T20:35:24.429Z,-0.50
2022-12-08T20:37:51.785Z,-0.50
2022-12-08T20:40:19.223Z,-0.50
2022-12-08T20:42:46.578Z,-0.50
2022-12-08T20:45:13.830Z,-0.40
2022-12-08T20:47:41.063Z,-0.50
2022-12-08T20:50:09.146Z,-0.50
2022-12-08T20:52:37.948Z,-0.50
2022-12-08T20:55:06.180Z,-0.50
2022-12-08T20:57:33.525Z,-0.60
2022-12-08T21:00:00.798Z,-0.50
2022-12-08T21:02:28.160Z,-0.50
2022-12-08T21:04:55.578Z,-0.60
2022-12-08T21:07:23.029Z,-0.70
2022-12-08T21:09:50.545Z,-0.80
2022-12-08T21:12:17.979Z,-0.70
2022-12-08T21:14:45.464Z,-0.60
2022-12-08T21:17:12.834Z,-0.70
2022-12-08T21:19:40.287Z,-0.80
2022-12-08T21:22:07.632Z,-0.90
2022-12-08T21:24:35.106Z,-0.90
2022-12-08T21:27:02.521Z,-0.90
2022-12-08T21:29:29.904Z,-0.80
2022-12-08T21:31:58.663Z,-0.90
2022-12-08T21:34:26.665Z,-0.90
2022-12-08T21:36:54.145Z,-0.90
2022-12-08T21:39:21.389Z,-1.00
2022-12-08T21:42:07.391Z,-1.00
2022-12-08T21:44:37.678Z,-0.90
2022-12-08T21:47:05.536Z,-0.90
2022-12-08T21:49:33.117Z,-1.00
2022-12-08T21:52:00.561Z,-1.00
2022-12-08T21:54:28.338Z,-1.00
2022-12-08T21:56:55.567Z,-0.90
2022-12-08T21:59:22.992Z,-0.80
2022-12-08T22:01:50.386Z,-0.80
2022-12-08T22:04:18.422Z,-0.90
2022-12-08T22:06:45.993Z,-1.00
2022-12-08T22:09:15.315Z,-1.00
2022-12-08T22:11:43.165Z,-1.00
2022-12-08T22:14:14.475Z,-0.90
2022-12-08T22:16:43.454Z,-0.90
2022-12-08T22:19:11.379Z,-0.90
2022-12-08T22:21:39.170Z,-0.90
2022-12-08T22:24:06.748Z,-0.90
2022-12-08T22:26:34.092Z,-0.70
2022-12-08T22:29:01.425Z,-0.60
2022-12-08T22:31:28.660Z,-0.60
2022-12-08T22:33:56.009Z,-0.70
2022-12-08T22:36:24.692Z,-0.80
2022-12-08T22:38:52.383Z,-0.80
2022-12-08T22:41:19.884Z,-0.70
2022-12-08T22:43:47.384Z,-0.70
2022-12-08T22:46:16.851Z,-0.80
2022-12-08T22:48:44.250Z,-0.80
2022-12-08T22:51:11.924Z,-0.80
2022-12-08T22:53:39.208Z,-0.70
2022-12-08T22:56:08.090Z,-0.70
2022-12-08T22:58:35.904Z,-0.70
2022-12-08T23:01:03.146Z,-0.80
2022-12-08T23:03:30.940Z,-0.90
2022-12-08T23:05:58.212Z,-0.90
2022-12-08T23:08:25.593Z,-0.90
2022-12-08T23:10:53.252Z,-1.00
2022-12-08T23:13:21.076Z,-1.00
2022-12-08T23:15:48.568Z,-1.00
2022-12-08T23:18:18.707Z,-1.00
2022-12-08T23:20:46.508Z,-0.90
2022-12-08T23:23:14.235Z,-0.90
2022-12-08T23:25:42.152Z,-0.90
2022-12-08T23:28:09.784Z,-0.90
2022-12-08T23:30:39.705Z,-0.70
2022-12-08T23:33:07.038Z,-0.60
2022-12-08T23:35:34.346Z,-0.50
2022-12-08T23:38:01.637Z,-0.40
2022-12-08T23:40:28.885Z,-0.30
2022-12-08T23:42:56.105Z,-0.30
2022-12-08T23:45:23.429Z,-0.30
2022-12-08T23:47:50.675Z,-0.10
2022-12-08T23:50:17.901Z,-0.20
2022-12-08T23:52:45.136Z,-0.30
2022-12-08T23:55:12.647Z,-0.40
2022-12-08T23:57:40.076Z,-0.40
